Alexandria, Missouri
Current Conditions -  °F | °C
As of 1:15 PM on Sunday 21 Dec 2014 (Local Time) from KEOK Reporting Station
Overcast Overcast  
Wind Chill: 39°   Ceiling: 3400
Heat Index: 45°   Visibility: 10mi
Dew Point: 36°   Wind: 10mph
Humidity: 71%   Direction: 170°S
Pressure: 29.97"   Gusts: 18mph
Location:  40.36°N, 91.46°W
Report Text: KEOK 211915Z AUTO 17009G16KT 10SM FEW020 FEW025 OVC034 07/02 A2997 RMK AO2
Loading
Personal Weather Stations






























Interactive Weather Map New forecast layout! Learn more

10-Day Weather Forecast

Advertisements
Track Severe Weather on mobile